Time;durP1;ratioP1;P1;durP2;ratioP2;P2;SDS_P1;SDS_P2;PMS_P1;PMS_P2;Temp;Humidity;BMP_temperature;BMP_pressure;BME280_temperature;BME280_humidity;BME280_pressure;Samples;Min_cycle;Max_cycle;Signal;HPM_P1;HPM_P2
2023/05/26 00:00:32;;;;;;;10.38;3.92;;;;;;;;;;4826225;29;20053;-74
2023/05/26 00:03:05;;;;;;;9.57;3.55;;;;;;;;;;4828747;29;20425;-75
2023/05/26 00:05:39;;;;;;;7.10;3.70;;;;;;;;;;4833796;29;20049;-75
2023/05/26 00:08:10;;;;;;;12.82;4.00;;;;;;;;;;4833944;29;20137;-75
2023/05/26 00:10:46;;;;;;;7.47;3.95;;;;;;;;;;4833639;29;20502;-74
2023/05/26 00:13:16;;;;;;;6.03;4.07;;;;;;;;;;4833346;29;20058;-75
2023/05/26 00:15:48;;;;;;;10.93;4.20;;;;;;;;;;4833865;29;20049;-75
2023/05/26 00:18:19;;;;;;;7.50;4.88;;;;;;;;;;4834164;29;20149;-74
2023/05/26 00:20:55;;;;;;;7.82;3.50;;;;;;;;;;4833941;29;20061;-74
2023/05/26 00:23:27;;;;;;;7.65;3.28;;;;;;;;;;4834002;29;20061;-76
2023/05/26 00:25:57;;;;;;;4.95;3.78;;;;;;;;;;4835455;29;20524;-76
2023/05/26 00:28:27;;;;;;;8.27;4.13;;;;;;;;;;4837528;29;20095;-76
2023/05/26 00:31:00;;;;;;;10.93;4.00;;;;;;;;;;4851511;29;20065;-76
2023/05/26 00:33:31;;;;;;;6.45;4.20;;;;;;;;;;4837816;29;20540;-76
2023/05/26 00:36:06;;;;;;;10.18;3.13;;;;;;;;;;4837901;29;20061;-75
2023/05/26 00:38:36;;;;;;;9.32;4.00;;;;;;;;;;4838957;29;20548;-74
2023/05/26 00:41:17;;;;;;;8.55;3.30;;;;;;;;;;4836920;29;20078;-76
2023/05/26 00:43:51;;;;;;;9.23;4.38;;;;;;;;;;4833727;29;20062;-80
2023/05/26 00:46:22;;;;;;;8.00;4.20;;;;;;;;;;4835831;29;20049;-76
2023/05/26 00:48:53;;;;;;;10.43;3.67;;;;;;;;;;4836930;29;20054;-75
2023/05/26 00:51:24;;;;;;;6.25;3.60;;;;;;;;;;4851041;29;20080;-76
2023/05/26 00:53:57;;;;;;;5.97;3.40;;;;;;;;;;4851085;29;20065;-76
2023/05/26 00:56:31;;;;;;;8.35;4.50;;;;;;;;;;4837161;29;20057;-76
2023/05/26 00:59:05;;;;;;;10.02;3.70;;;;;;;;;;4851298;29;20050;-75
2023/05/26 01:01:36;;;;;;;7.30;3.70;;;;;;;;;;4837767;29;20049;-76
2023/05/26 01:04:06;;;;;;;6.50;4.10;;;;;;;;;;4836994;29;20050;-75
2023/05/26 01:06:38;;;;;;;7.65;3.88;;;;;;;;;;4851297;29;20077;-76
2023/05/26 01:09:10;;;;;;;7.30;3.72;;;;;;;;;;4850508;29;20145;-76
2023/05/26 01:12:05;;;;;;;7.70;3.70;;;;;;;;;;4836812;29;20045;-76
2023/05/26 01:14:54;;;;;;;6.60;3.60;;;;;;;;;;4836732;29;20081;-76
2023/05/26 01:17:46;;;;;;;5.63;3.95;;;;;;;;;;4850665;29;20058;-75
2023/05/26 01:20:20;;;;;;;8.80;4.07;;;;;;;;;;4851156;29;20050;-77
2023/05/26 01:23:32;;;;;;;10.32;4.20;;;;;;;;;;4836675;29;20060;-76
2023/05/26 01:26:38;;;;;;;8.68;4.38;;;;;;;;;;4807042;29;20425;-75
2023/05/26 01:29:12;;;;;;;6.57;3.40;;;;;;;;;;4836347;29;20061;-75
2023/05/26 01:31:43;;;;;;;9.55;4.47;;;;;;;;;;4836479;29;20046;-76
2023/05/26 01:34:14;;;;;;;6.60;3.60;;;;;;;;;;4833857;29;20065;-75
2023/05/26 01:36:46;;;;;;;7.65;4.60;;;;;;;;;;4848598;29;20061;-76
2023/05/26 01:39:17;;;;;;;9.00;4.05;;;;;;;;;;4849002;29;20529;-75
2023/05/26 01:42:05;;;;;;;5.50;4.32;;;;;;;;;;4835291;29;20064;-76
2023/05/26 01:44:52;;;;;;;10.20;4.07;;;;;;;;;;4849731;29;20057;-76
2023/05/26 01:47:26;;;;;;;6.55;4.00;;;;;;;;;;4836078;29;20060;-77
2023/05/26 01:50:02;;;;;;;8.45;4.35;;;;;;;;;;4835986;29;20054;-76
2023/05/26 01:52:34;;;;;;;8.35;3.60;;;;;;;;;;4835620;29;20049;-76
2023/05/26 01:55:08;;;;;;;6.50;4.30;;;;;;;;;;4836160;29;20057;-75
2023/05/26 01:57:45;;;;;;;7.80;4.10;;;;;;;;;;4850239;29;20065;-75
2023/05/26 02:00:24;;;;;;;9.82;3.88;;;;;;;;;;4850264;29;20536;-75
2023/05/26 02:02:54;;;;;;;7.32;3.90;;;;;;;;;;4835881;29;20077;-75
2023/05/26 02:05:26;;;;;;;10.50;4.28;;;;;;;;;;4849802;29;20049;-75
2023/05/26 02:07:57;;;;;;;7.25;3.50;;;;;;;;;;4849507;29;20502;-75
2023/05/26 02:10:28;;;;;;;11.18;4.00;;;;;;;;;;4850097;29;20054;-75
2023/05/26 02:12:58;;;;;;;10.20;3.53;;;;;;;;;;4849919;29;20058;-76
2023/05/26 02:15:29;;;;;;;5.38;3.97;;;;;;;;;;4850558;29;20510;-75
2023/05/26 02:18:03;;;;;;;13.02;4.40;;;;;;;;;;4850436;29;20062;-75
2023/05/26 02:20:35;;;;;;;8.45;3.70;;;;;;;;;;4849933;29;20046;-75
2023/05/26 02:23:07;;;;;;;8.43;3.40;;;;;;;;;;4849855;29;20066;-75
2023/05/26 02:25:37;;;;;;;12.23;3.92;;;;;;;;;;4835695;29;20060;-74
2023/05/26 02:28:09;;;;;;;8.40;4.22;;;;;;;;;;4849865;29;20053;-76
2023/05/26 02:30:39;;;;;;;8.88;3.90;;;;;;;;;;4835630;29;20062;-74
2023/05/26 02:33:10;;;;;;;10.27;3.80;;;;;;;;;;4835847;29;20050;-74
2023/05/26 02:35:41;;;;;;;9.05;3.70;;;;;;;;;;4835008;29;20068;-74
2023/05/26 02:38:13;;;;;;;9.70;3.78;;;;;;;;;;4836410;29;20092;-75
2023/05/26 02:40:44;;;;;;;7.18;3.28;;;;;;;;;;4849575;29;20057;-75
2023/05/26 02:43:17;;;;;;;7.68;4.18;;;;;;;;;;4835158;29;20054;-75
2023/05/26 02:45:47;;;;;;;8.70;3.78;;;;;;;;;;4835160;29;20049;-75
2023/05/26 02:48:18;;;;;;;10.60;3.33;;;;;;;;;;4833652;29;20430;-76
2023/05/26 02:50:49;;;;;;;7.40;3.45;;;;;;;;;;4835506;29;20054;-77
2023/05/26 02:53:22;;;;;;;8.23;4.05;;;;;;;;;;4835401;29;20058;-76
2023/05/26 02:55:51;;;;;;;8.35;3.92;;;;;;;;;;4835347;29;20490;-74
2023/05/26 02:58:24;;;;;;;5.72;4.18;;;;;;;;;;4835494;29;20073;-75
2023/05/26 03:00:55;;;;;;;8.68;3.90;;;;;;;;;;4849192;29;20525;-75
2023/05/26 03:03:26;;;;;;;10.00;4.00;;;;;;;;;;4835515;29;20057;-75
2023/05/26 03:05:57;;;;;;;7.80;4.00;;;;;;;;;;4849439;29;20046;-74
2023/05/26 03:08:29;;;;;;;8.05;3.95;;;;;;;;;;4833569;29;20062;-75
2023/05/26 03:11:02;;;;;;;7.90;4.30;;;;;;;;;;4833375;29;20065;-75
2023/05/26 03:13:42;;;;;;;6.32;3.72;;;;;;;;;;4849023;29;20521;-75
2023/05/26 03:16:14;;;;;;;7.55;3.60;;;;;;;;;;4849059;29;20050;-74
2023/05/26 03:18:46;;;;;;;5.22;2.90;;;;;;;;;;4848961;29;20409;-75
2023/05/26 03:21:32;;;;;;;8.30;3.20;;;;;;;;;;4846790;29;20066;-75
2023/05/26 03:24:18;;;;;;;6.00;3.38;;;;;;;;;;4849084;29;20540;-75
2023/05/26 03:26:48;;;;;;;5.60;3.92;;;;;;;;;;4848656;29;20069;-75
2023/05/26 03:29:19;;;;;;;5.43;3.22;;;;;;;;;;4848451;29;20603;-76
2023/05/26 03:31:49;;;;;;;8.38;3.85;;;;;;;;;;4834932;29;20057;-75
2023/05/26 03:34:21;;;;;;;6.50;3.50;;;;;;;;;;4834890;29;20061;-74
2023/05/26 03:36:53;;;;;;;9.88;3.50;;;;;;;;;;4848725;29;20057;-75
2023/05/26 03:39:27;;;;;;;5.30;3.22;;;;;;;;;;4834578;29;20426;-74
2023/05/26 03:42:01;;;;;;;5.00;3.00;;;;;;;;;;4848842;29;20426;-74
2023/05/26 03:44:35;;;;;;;9.75;3.83;;;;;;;;;;4832982;29;20057;-74
2023/05/26 03:47:06;;;;;;;5.90;4.13;;;;;;;;;;4833279;29;20533;-75
2023/05/26 03:49:36;;;;;;;7.15;3.40;;;;;;;;;;4834838;29;20049;-76
2023/05/26 03:52:07;;;;;;;7.00;3.80;;;;;;;;;;4849045;29;20061;-76
2023/05/26 03:54:38;;;;;;;7.88;3.33;;;;;;;;;;4848834;29;20525;-75
2023/05/26 03:57:08;;;;;;;6.93;3.97;;;;;;;;;;4848421;29;20057;-76
2023/05/26 03:59:38;;;;;;;7.60;4.00;;;;;;;;;;4848491;29;20061;-75
2023/05/26 04:02:09;;;;;;;6.78;4.18;;;;;;;;;;4851703;29;20053;-75
2023/05/26 04:04:41;;;;;;;10.18;3.88;;;;;;;;;;4838633;29;20041;-75
2023/05/26 04:07:12;;;;;;;10.65;3.15;;;;;;;;;;4837417;29;20631;-76
2023/05/26 04:09:44;;;;;;;7.65;3.78;;;;;;;;;;4838178;29;20054;-75
2023/05/26 04:12:17;;;;;;;5.20;4.15;;;;;;;;;;4851932;29;20062;-75
2023/05/26 04:14:48;;;;;;;7.05;4.13;;;;;;;;;;4837823;29;20053;-75
2023/05/26 04:17:18;;;;;;;8.52;3.65;;;;;;;;;;4838062;29;20054;-76
2023/05/26 04:19:48;;;;;;;7.95;4.28;;;;;;;;;;4837808;29;20398;-76
2023/05/26 04:22:19;;;;;;;5.93;3.33;;;;;;;;;;4837652;29;20061;-75
2023/05/26 04:24:49;;;;;;;8.15;4.63;;;;;;;;;;4836952;29;20529;-75
2023/05/26 04:27:30;;;;;;;5.53;3.53;;;;;;;;;;4851988;29;20050;-76
2023/05/26 04:30:26;;;;;;;7.10;4.07;;;;;;;;;;4836525;29;20058;-75
2023/05/26 04:33:15;;;;;;;7.47;3.55;;;;;;;;;;4851553;29;20053;-75
2023/05/26 04:36:00;;;;;;;8.38;3.88;;;;;;;;;;4836640;29;20175;-75
2023/05/26 04:38:31;;;;;;;5.35;3.95;;;;;;;;;;4838094;29;20069;-75
2023/05/26 04:41:04;;;;;;;13.45;3.78;;;;;;;;;;4838291;29;20050;-75
2023/05/26 04:43:35;;;;;;;6.82;4.03;;;;;;;;;;4851748;29;20514;-74
2023/05/26 04:46:16;;;;;;;6.40;4.60;;;;;;;;;;4837814;29;20065;-76
2023/05/26 04:48:47;;;;;;;6.30;4.05;;;;;;;;;;4837342;29;20501;-74
2023/05/26 04:51:20;;;;;;;6.90;4.00;;;;;;;;;;4837447;29;20070;-75
2023/05/26 04:53:52;;;;;;;7.50;3.55;;;;;;;;;;4850988;29;20058;-75
2023/05/26 04:56:21;;;;;;;7.22;4.53;;;;;;;;;;4851031;29;20054;-76
2023/05/26 04:58:56;;;;;;;5.88;3.60;;;;;;;;;;4835994;29;20054;-76
2023/05/26 05:01:27;;;;;;;5.68;4.43;;;;;;;;;;4837144;29;20080;-75
2023/05/26 05:04:18;;;;;;;5.78;3.78;;;;;;;;;;4837065;29;20066;-75
2023/05/26 05:06:55;;;;;;;5.70;3.05;;;;;;;;;;4851368;29;20069;-75
2023/05/26 05:09:25;;;;;;;8.50;4.18;;;;;;;;;;4850981;29;20562;-76
2023/05/26 05:11:56;;;;;;;6.72;4.13;;;;;;;;;;4850821;29;20049;-75
2023/05/26 05:14:29;;;;;;;6.75;4.22;;;;;;;;;;4835811;29;20140;-74
2023/05/26 05:16:59;;;;;;;9.75;4.22;;;;;;;;;;4851030;29;20062;-75
2023/05/26 05:19:30;;;;;;;5.38;3.95;;;;;;;;;;4850774;29;20062;-75
2023/05/26 05:22:01;;;;;;;6.22;4.28;;;;;;;;;;4850773;29;20062;-76
2023/05/26 05:24:31;;;;;;;6.38;4.13;;;;;;;;;;4851095;29;20049;-75
2023/05/26 05:27:05;;;;;;;7.40;3.85;;;;;;;;;;4850775;29;20065;-76
2023/05/26 05:29:37;;;;;;;7.63;3.92;;;;;;;;;;4850471;29;20062;-75
2023/05/26 05:32:09;;;;;;;5.18;3.63;;;;;;;;;;4837371;29;20069;-74
2023/05/26 05:34:48;;;;;;;6.90;4.05;;;;;;;;;;4850462;29;20058;-75
2023/05/26 05:37:20;;;;;;;7.32;4.35;;;;;;;;;;4850805;29;20058;-75
2023/05/26 05:39:50;;;;;;;9.95;3.95;;;;;;;;;;4850450;29;20764;-75
2023/05/26 05:42:24;;;;;;;8.32;3.83;;;;;;;;;;4850493;29;20065;-76
2023/05/26 05:44:56;;;;;;;5.68;4.15;;;;;;;;;;4850539;29;20517;-76
2023/05/26 05:47:51;;;;;;;9.48;4.50;;;;;;;;;;4836953;29;20073;-75
2023/05/26 05:50:21;;;;;;;9.45;3.83;;;;;;;;;;4850509;29;20600;-76
2023/05/26 05:52:53;;;;;;;6.88;4.10;;;;;;;;;;4849999;29;20069;-76
2023/05/26 05:55:23;;;;;;;5.47;3.83;;;;;;;;;;4850200;29;20057;-74
2023/05/26 05:57:54;;;;;;;8.73;4.45;;;;;;;;;;4850083;29;20425;-75
2023/05/26 06:00:24;;;;;;;6.95;3.67;;;;;;;;;;4835025;29;20053;-76
2023/05/26 06:02:56;;;;;;;10.57;4.07;;;;;;;;;;4850303;29;20370;-76
2023/05/26 06:05:26;;;;;;;6.03;3.83;;;;;;;;;;4850296;29;20069;-75
2023/05/26 06:07:57;;;;;;;6.55;4.35;;;;;;;;;;4850282;29;20061;-75
2023/05/26 06:10:27;;;;;;;7.05;3.95;;;;;;;;;;4849662;29;20430;-76
2023/05/26 06:12:58;;;;;;;6.85;4.35;;;;;;;;;;4849817;29;20844;-75
2023/05/26 06:15:30;;;;;;;8.18;4.18;;;;;;;;;;4849722;29;20065;-75
2023/05/26 06:18:01;;;;;;;6.30;3.78;;;;;;;;;;4849728;29;20068;-76
2023/05/26 06:20:33;;;;;;;7.07;4.43;;;;;;;;;;4849684;29;20102;-74
2023/05/26 06:23:03;;;;;;;8.57;4.47;;;;;;;;;;4849197;29;20054;-75
2023/05/26 06:25:34;;;;;;;6.88;4.60;;;;;;;;;;4850080;29;20058;-75
2023/05/26 06:28:07;;;;;;;7.10;3.65;;;;;;;;;;4849621;29;20537;-75
2023/05/26 06:30:38;;;;;;;7.35;4.60;;;;;;;;;;4849205;29;20069;-75
2023/05/26 06:33:41;;;;;;;6.60;4.18;;;;;;;;;;4834611;29;20539;-75
2023/05/26 06:36:16;;;;;;;6.93;4.28;;;;;;;;;;4834340;29;20050;-74
2023/05/26 06:38:47;;;;;;;6.20;4.07;;;;;;;;;;4849819;29;20088;-76
2023/05/26 06:41:30;;;;;;;5.20;4.10;;;;;;;;;;4849794;29;20085;-76
2023/05/26 06:44:03;;;;;;;7.32;3.90;;;;;;;;;;4849711;29;20065;-76
2023/05/26 06:46:34;;;;;;;7.38;4.35;;;;;;;;;;4835453;29;20054;-74
2023/05/26 06:49:05;;;;;;;7.15;4.22;;;;;;;;;;4849453;29;20061;-75
2023/05/26 06:51:42;;;;;;;6.85;4.35;;;;;;;;;;4849179;29;20046;-75
2023/05/26 06:54:14;;;;;;;7.28;3.85;;;;;;;;;;4849582;29;20105;-76
2023/05/26 06:56:45;;;;;;;9.10;4.60;;;;;;;;;;4848958;29;20545;-76
2023/05/26 06:59:17;;;;;;;5.50;3.83;;;;;;;;;;4849177;29;20856;-75
2023/05/26 07:01:47;;;;;;;7.35;4.40;;;;;;;;;;4835778;29;20058;-75
2023/05/26 07:04:17;;;;;;;7.88;4.30;;;;;;;;;;4849463;29;20053;-75
2023/05/26 07:06:48;;;;;;;7.55;3.58;;;;;;;;;;4848937;29;20058;-76
2023/05/26 07:09:22;;;;;;;5.10;3.38;;;;;;;;;;4849266;29;20058;-76
2023/05/26 07:11:55;;;;;;;8.98;4.28;;;;;;;;;;4849191;29;21122;-76
2023/05/26 07:14:58;;;;;;;10.25;3.63;;;;;;;;;;4824051;29;20054;-76
2023/05/26 07:17:28;;;;;;;9.95;4.00;;;;;;;;;;4848705;29;20081;-75
2023/05/26 07:20:00;;;;;;;7.00;4.45;;;;;;;;;;4848799;29;20505;-76
2023/05/26 07:22:36;;;;;;;5.45;4.03;;;;;;;;;;4834932;29;20065;-75
2023/05/26 07:25:12;;;;;;;7.00;4.57;;;;;;;;;;4848762;29;20054;-75
2023/05/26 07:27:47;;;;;;;5.15;4.28;;;;;;;;;;4849056;29;20062;-75
2023/05/26 07:30:19;;;;;;;5.68;3.38;;;;;;;;;;4849283;29;20076;-75
2023/05/26 07:32:58;;;;;;;6.70;3.67;;;;;;;;;;4849542;29;20050;-74
2023/05/26 07:35:28;;;;;;;7.72;3.67;;;;;;;;;;4848083;29;20062;-75
2023/05/26 07:37:59;;;;;;;9.00;4.45;;;;;;;;;;4848856;29;20057;-75
2023/05/26 07:40:34;;;;;;;7.68;3.88;;;;;;;;;;4834664;29;20057;-76
2023/05/26 07:43:14;;;;;;;5.95;3.60;;;;;;;;;;4834644;29;20049;-75
2023/05/26 07:45:45;;;;;;;6.22;4.00;;;;;;;;;;4834068;29;20053;-75
2023/05/26 07:48:42;;;;;;;7.35;3.60;;;;;;;;;;4834640;29;20597;-75
2023/05/26 07:51:13;;;;;;;6.90;3.58;;;;;;;;;;4835211;29;20540;-75
2023/05/26 07:53:44;;;;;;;8.18;4.28;;;;;;;;;;4834583;29;20049;-75
2023/05/26 07:56:14;;;;;;;6.65;4.00;;;;;;;;;;4834600;29;20050;-76
2023/05/26 07:58:44;;;;;;;6.28;4.22;;;;;;;;;;4832843;29;20578;-74
2023/05/26 08:01:16;;;;;;;7.53;3.83;;;;;;;;;;4835458;29;20054;-74
2023/05/26 08:03:47;;;;;;;8.45;4.55;;;;;;;;;;4834903;29;20449;-75
2023/05/26 08:06:18;;;;;;;6.47;4.25;;;;;;;;;;4835234;29;20052;-76
2023/05/26 08:08:55;;;;;;;6.78;3.03;;;;;;;;;;4834870;29;20050;-74
2023/05/26 08:11:25;;;;;;;7.22;4.22;;;;;;;;;;4834066;29;20069;-75
2023/05/26 08:13:56;;;;;;;6.03;4.20;;;;;;;;;;4848180;29;20062;-75
2023/05/26 08:16:26;;;;;;;7.82;3.50;;;;;;;;;;4834437;29;20063;-74
2023/05/26 08:18:59;;;;;;;6.35;4.07;;;;;;;;;;4834436;29;20514;-74
2023/05/26 08:21:29;;;;;;;5.28;3.80;;;;;;;;;;4836762;29;20096;-74
2023/05/26 08:24:02;;;;;;;7.32;4.07;;;;;;;;;;4834630;29;20046;-75
2023/05/26 08:26:35;;;;;;;8.13;3.92;;;;;;;;;;4834485;29;20057;-75
2023/05/26 08:29:06;;;;;;;8.07;3.97;;;;;;;;;;4834232;29;20053;-76
2023/05/26 08:31:36;;;;;;;6.38;4.13;;;;;;;;;;4834053;29;20514;-76
2023/05/26 08:34:08;;;;;;;5.45;3.85;;;;;;;;;;4847505;29;20050;-76
2023/05/26 08:36:39;;;;;;;6.88;3.50;;;;;;;;;;4847926;29;20054;-75
2023/05/26 08:39:12;;;;;;;7.07;4.03;;;;;;;;;;4834591;29;20533;-74
2023/05/26 08:41:55;;;;;;;8.57;4.53;;;;;;;;;;4834627;29;20429;-75
2023/05/26 08:44:27;;;;;;;9.65;4.28;;;;;;;;;;4834005;29;20072;-74
2023/05/26 08:47:02;;;;;;;8.18;3.83;;;;;;;;;;4835755;29;20056;-75
2023/05/26 08:49:36;;;;;;;;;;;;;;;;;;4838833;29;20054;-76
2023/05/26 08:52:13;;;;;;;7.38;3.30;;;;;;;;;;4838705;29;19936;-75
2023/05/26 08:54:45;;;;;;;6.38;4.30;;;;;;;;;;4838477;29;20132;-75
2023/05/26 08:57:18;;;;;;;7.38;4.38;;;;;;;;;;4837576;29;20049;-75
2023/05/26 09:00:03;;;;;;;6.53;3.53;;;;;;;;;;4837346;29;20061;-75
2023/05/26 09:02:33;;;;;;;6.38;3.90;;;;;;;;;;4837234;29;20049;-76
2023/05/26 09:05:04;;;;;;;5.60;3.45;;;;;;;;;;4837063;29;20494;-76
2023/05/26 09:07:35;;;;;;;8.38;3.67;;;;;;;;;;4837106;29;20054;-75
2023/05/26 09:10:26;;;;;;;6.25;4.25;;;;;;;;;;4837464;29;20054;-78
2023/05/26 09:13:07;;;;;;;5.18;3.55;;;;;;;;;;4837872;29;20046;-74
2023/05/26 09:15:39;;;;;;;6.20;3.60;;;;;;;;;;4837882;29;20054;-75
2023/05/26 09:18:14;;;;;;;8.43;4.13;;;;;;;;;;4837136;29;20501;-74
2023/05/26 09:20:49;;;;;;;7.78;4.03;;;;;;;;;;4837575;29;20367;-76
2023/05/26 09:23:22;;;;;;;5.85;3.95;;;;;;;;;;4837324;29;20058;-75
2023/05/26 09:25:52;;;;;;;7.75;4.50;;;;;;;;;;4850722;29;20054;-79
2023/05/26 09:28:26;;;;;;;5.65;3.30;;;;;;;;;;4837192;29;20506;-75
2023/05/26 09:30:58;;;;;;;5.30;3.63;;;;;;;;;;4836609;29;20425;-75
2023/05/26 09:33:28;;;;;;;5.30;3.50;;;;;;;;;;4837013;29;20062;-74
2023/05/26 09:36:07;;;;;;;6.82;3.08;;;;;;;;;;4837046;29;20391;-80
2023/05/26 09:38:42;;;;;;;6.22;3.15;;;;;;;;;;4850404;29;20053;-77
2023/05/26 09:41:20;;;;;;;6.65;3.30;;;;;;;;;;4850448;29;20553;-76
2023/05/26 09:43:51;;;;;;;4.20;3.35;;;;;;;;;;4836657;29;20816;-75
2023/05/26 09:46:23;;;;;;;4.72;3.28;;;;;;;;;;4836612;29;20494;-74
2023/05/26 09:48:56;;;;;;;13.18;4.20;;;;;;;;;;4836761;29;20058;-75
2023/05/26 09:51:31;;;;;;;11.20;4.28;;;;;;;;;;4849727;29;20062;-75
2023/05/26 09:54:12;;;;;;;7.85;2.85;;;;;;;;;;4836734;29;20053;-75
2023/05/26 09:56:43;;;;;;;5.03;3.20;;;;;;;;;;4836809;29;20058;-75
2023/05/26 09:59:16;;;;;;;5.00;3.80;;;;;;;;;;4835308;29;20046;-81
2023/05/26 10:01:46;;;;;;;9.90;3.40;;;;;;;;;;4836413;29;20053;-76
2023/05/26 10:04:17;;;;;;;5.38;3.47;;;;;;;;;;4836717;29;20050;-75
2023/05/26 10:06:51;;;;;;;8.45;2.85;;;;;;;;;;4836998;29;20529;-74
2023/05/26 10:09:23;;;;;;;4.97;3.33;;;;;;;;;;4836170;29;20045;-76
2023/05/26 10:11:57;;;;;;;5.20;2.78;;;;;;;;;;4836586;29;20058;-75
2023/05/26 10:14:40;;;;;;;5.75;3.28;;;;;;;;;;4835516;29;20498;-78
2023/05/26 10:17:12;;;;;;;5.10;3.22;;;;;;;;;;4824122;29;20050;-75
2023/05/26 10:19:42;;;;;;;14.15;3.83;;;;;;;;;;4818150;29;20502;-77
2023/05/26 10:22:29;;;;;;;9.60;3.30;;;;;;;;;;4817620;29;20069;-75
2023/05/26 10:25:07;;;;;;;9.02;3.20;;;;;;;;;;4817370;29;20057;-75
2023/05/26 10:27:44;;;;;;;;;;;;;;;;;;4818310;29;20415;-76
2023/05/26 10:30:19;;;;;;;11.98;3.25;;;;;;;;;;4830618;29;19936;-73
2023/05/26 10:33:11;;;;;;;10.85;2.88;;;;;;;;;;4817845;29;20054;-74
2023/05/26 10:35:55;;;;;;;11.25;3.10;;;;;;;;;;4816855;29;20429;-74
2023/05/26 10:38:33;;;;;;;6.50;2.90;;;;;;;;;;4816908;29;20863;-76
2023/05/26 10:41:15;;;;;;;4.20;3.08;;;;;;;;;;4831189;29;20065;-74
2023/05/26 10:43:46;;;;;;;12.60;3.42;;;;;;;;;;4818104;29;20058;-73
2023/05/26 10:47:03;;;;;;;5.78;2.85;;;;;;;;;;4817316;29;20054;-75
2023/05/26 10:49:37;;;;;;;7.75;2.60;;;;;;;;;;4816148;29;20054;-74
2023/05/26 10:52:13;;;;;;;4.45;2.60;;;;;;;;;;4816314;29;20553;-77
2023/05/26 10:54:44;;;;;;;5.65;3.13;;;;;;;;;;4817355;29;20050;-78
2023/05/26 10:57:31;;;;;;;9.32;3.15;;;;;;;;;;4817413;29;20077;-73
2023/05/26 11:00:25;;;;;;;9.90;3.50;;;;;;;;;;4817536;29;20054;-74
2023/05/26 11:02:56;;;;;;;18.85;3.85;;;;;;;;;;4817789;29;20530;-77
2023/05/26 11:05:33;;;;;;;5.38;2.53;;;;;;;;;;4830163;29;20058;-74
2023/05/26 11:08:20;;;;;;;8.10;2.63;;;;;;;;;;4816697;29;20051;-75
2023/05/26 11:11:06;;;;;;;4.45;2.33;;;;;;;;;;4816939;29;20710;-74
2023/05/26 11:13:46;;;;;;;5.20;2.40;;;;;;;;;;4817871;29;20070;-75
2023/05/26 11:16:19;;;;;;;5.05;3.55;;;;;;;;;;4817224;29;20046;-76
2023/05/26 11:19:07;;;;;;;5.78;2.30;;;;;;;;;;4817213;29;20062;-75
2023/05/26 11:21:40;;;;;;;7.03;2.85;;;;;;;;;;4814810;29;20062;-74
2023/05/26 11:24:12;;;;;;;14.80;4.70;;;;;;;;;;4817043;29;20051;-75
2023/05/26 11:26:43;;;;;;;4.45;2.15;;;;;;;;;;4816968;29;20046;-76
2023/05/26 11:29:13;;;;;;;4.28;2.50;;;;;;;;;;4816280;29;20050;-75
2023/05/26 11:31:48;;;;;;;8.85;4.90;;;;;;;;;;4817113;29;20065;-75
2023/05/26 11:34:19;;;;;;;8.35;2.58;;;;;;;;;;4814555;29;20050;-75
2023/05/26 11:36:54;;;;;;;9.30;2.42;;;;;;;;;;4814250;29;20506;-77
2023/05/26 11:39:31;;;;;;;27.20;2.67;;;;;;;;;;4814851;29;20503;-74
2023/05/26 11:42:11;;;;;;;8.90;2.33;;;;;;;;;;4814840;29;20415;-74
2023/05/26 11:44:44;;;;;;;6.10;2.58;;;;;;;;;;4814954;29;20043;-75
2023/05/26 11:47:15;;;;;;;3.67;2.47;;;;;;;;;;4814523;29;20054;-75
2023/05/26 11:49:48;;;;;;;8.57;2.40;;;;;;;;;;4817177;29;20062;-75
2023/05/26 11:52:25;;;;;;;9.23;2.47;;;;;;;;;;4816719;29;20394;-74
2023/05/26 11:54:55;;;;;;;8.30;2.45;;;;;;;;;;4816296;29;20081;-75
2023/05/26 11:57:31;;;;;;;5.70;3.08;;;;;;;;;;4816366;29;20061;-74
2023/05/26 12:00:09;;;;;;;6.35;2.47;;;;;;;;;;4816236;29;20046;-75
2023/05/26 12:02:41;;;;;;;24.33;18.80;;;;;;;;;;4829803;29;20063;-73
2023/05/26 12:05:25;;;;;;;7.47;2.25;;;;;;;;;;4816670;29;20073;-77
2023/05/26 12:08:06;;;;;;;7.28;2.50;;;;;;;;;;4816089;29;20054;-75
2023/05/26 12:10:40;;;;;;;5.72;2.15;;;;;;;;;;4815081;29;20077;-75
2023/05/26 12:13:11;;;;;;;5.15;1.70;;;;;;;;;;4815795;29;20058;-76
2023/05/26 12:15:51;;;;;;;6.80;2.28;;;;;;;;;;4816429;29;20054;-76
2023/05/26 12:18:23;;;;;;;4.03;2.13;;;;;;;;;;4816566;29;20062;-73
2023/05/26 12:20:53;;;;;;;3.65;1.90;;;;;;;;;;4816538;29;20507;-79
2023/05/26 12:23:26;;;;;;;5.47;1.90;;;;;;;;;;4819606;29;20059;-74
2023/05/26 12:25:56;;;;;;;4.78;1.60;;;;;;;;;;4819816;29;20057;-76
2023/05/26 12:28:26;;;;;;;7.68;2.05;;;;;;;;;;4819429;29;20518;-77
2023/05/26 12:30:56;;;;;;;2.28;1.83;;;;;;;;;;4819529;29;20066;-76
2023/05/26 12:33:28;;;;;;;8.02;1.80;;;;;;;;;;4819531;29;20058;-75
2023/05/26 12:36:01;;;;;;;4.05;1.65;;;;;;;;;;4833115;29;20054;-80
2023/05/26 12:38:43;;;;;;;4.53;1.50;;;;;;;;;;4818741;29;20388;-76
2023/05/26 12:41:15;;;;;;;4.90;2.00;;;;;;;;;;4819504;29;20062;-77
2023/05/26 12:43:47;;;;;;;10.45;1.90;;;;;;;;;;4818994;29;20046;-75
2023/05/26 12:46:17;;;;;;;6.20;1.95;;;;;;;;;;4818933;29;20073;-74
2023/05/26 12:48:50;;;;;;;3.30;1.73;;;;;;;;;;4819286;29;20065;-75
2023/05/26 12:51:24;;;;;;;4.28;1.80;;;;;;;;;;4818989;29;20057;-74
2023/05/26 12:53:55;;;;;;;6.25;2.45;;;;;;;;;;4819228;29;20860;-77
2023/05/26 12:56:31;;;;;;;4.72;1.92;;;;;;;;;;4819772;29;20066;-76
2023/05/26 12:59:02;;;;;;;15.10;2.17;;;;;;;;;;4818506;29;20077;-76
2023/05/26 13:01:47;;;;;;;4.80;1.90;;;;;;;;;;4818972;29;20507;-76
2023/05/26 13:04:18;;;;;;;4.88;1.92;;;;;;;;;;4818880;29;20050;-76
2023/05/26 13:06:54;;;;;;;5.43;1.58;;;;;;;;;;4819452;29;20525;-75
2023/05/26 13:09:28;;;;;;;4.78;1.70;;;;;;;;;;4819324;29;20068;-74
2023/05/26 13:11:59;;;;;;;5.70;1.90;;;;;;;;;;4819224;29;20058;-75
2023/05/26 13:14:29;;;;;;;5.00;1.75;;;;;;;;;;4818496;29;20054;-77
2023/05/26 13:16:59;;;;;;;10.68;2.20;;;;;;;;;;4832543;29;20061;-75
2023/05/26 13:19:30;;;;;;;5.57;2.22;;;;;;;;;;4818713;29;20054;-75
2023/05/26 13:22:04;;;;;;;7.90;2.03;;;;;;;;;;4818761;29;20050;-74
2023/05/26 13:24:34;;;;;;;8.68;1.80;;;;;;;;;;4818791;29;20050;-75
2023/05/26 13:27:04;;;;;;;4.22;1.70;;;;;;;;;;4818839;29;20388;-76
2023/05/26 13:29:35;;;;;;;2.78;1.67;;;;;;;;;;4818146;29;20426;-76
2023/05/26 13:32:07;;;;;;;3.13;1.80;;;;;;;;;;4818757;29;20510;-75
2023/05/26 13:34:37;;;;;;;5.07;1.90;;;;;;;;;;4815946;29;20065;-74
2023/05/26 13:37:07;;;;;;;2.78;1.70;;;;;;;;;;4831449;29;20050;-76
2023/05/26 13:39:39;;;;;;;7.20;1.83;;;;;;;;;;4831814;29;20061;-74
2023/05/26 13:42:10;;;;;;;6.13;2.17;;;;;;;;;;4818347;29;20054;-75
2023/05/26 13:44:42;;;;;;;10.55;3.55;;;;;;;;;;4818318;29;20050;-76
2023/05/26 13:47:13;;;;;;;6.35;1.50;;;;;;;;;;4818977;29;20533;-77
2023/05/26 13:49:43;;;;;;;8.05;1.90;;;;;;;;;;4818319;29;20419;-76
2023/05/26 13:52:14;;;;;;;4.50;1.67;;;;;;;;;;4817874;29;20533;-76
2023/05/26 13:54:44;;;;;;;5.82;1.90;;;;;;;;;;4818420;29;20050;-74
2023/05/26 13:57:15;;;;;;;3.15;1.65;;;;;;;;;;4817909;29;20065;-77
2023/05/26 13:59:45;;;;;;;8.50;5.00;;;;;;;;;;4817835;29;20051;-76
2023/05/26 14:02:16;;;;;;;7.07;3.08;;;;;;;;;;4818434;29;20057;-75
2023/05/26 14:04:46;;;;;;;6.28;2.45;;;;;;;;;;4818699;29;20051;-75
2023/05/26 14:07:17;;;;;;;8.55;2.25;;;;;;;;;;4817725;29;20054;-76
2023/05/26 14:09:47;;;;;;;6.60;2.05;;;;;;;;;;4817842;29;20058;-74
2023/05/26 14:12:18;;;;;;;8.98;1.90;;;;;;;;;;4817715;29;20519;-80
2023/05/26 14:14:50;;;;;;;6.05;2.00;;;;;;;;;;4817878;29;20062;-75
2023/05/26 14:17:20;;;;;;;8.07;2.65;;;;;;;;;;4817375;29;20058;-74
2023/05/26 14:19:51;;;;;;;7.78;3.03;;;;;;;;;;4817760;29;20062;-76
2023/05/26 14:22:41;;;;;;;14.93;2.95;;;;;;;;;;4818134;29;20046;-77
2023/05/26 14:25:12;;;;;;;8.00;2.05;;;;;;;;;;4831659;29;20058;-75
2023/05/26 14:27:44;;;;;;;7.38;1.90;;;;;;;;;;4816511;29;20062;-77
2023/05/26 14:30:15;;;;;;;11.20;2.83;;;;;;;;;;4815783;29;20058;-77
2023/05/26 14:32:45;;;;;;;9.32;2.42;;;;;;;;;;4817323;29;20421;-76
2023/05/26 14:35:18;;;;;;;6.03;2.40;;;;;;;;;;4817713;29;20054;-75
2023/05/26 14:37:49;;;;;;;5.93;1.67;;;;;;;;;;4817812;29;20699;-79
2023/05/26 14:40:23;;;;;;;4.43;2.28;;;;;;;;;;4817316;29;20058;-76
2023/05/26 14:42:54;;;;;;;8.77;2.72;;;;;;;;;;4817036;29;20046;-75
2023/05/26 14:45:25;;;;;;;4.47;2.20;;;;;;;;;;4815619;29;20422;-76
2023/05/26 14:48:15;;;;;;;10.65;2.38;;;;;;;;;;4817092;29;20061;-75
2023/05/26 14:51:00;;;;;;;7.13;2.03;;;;;;;;;;4830326;29;20063;-74
2023/05/26 14:53:31;;;;;;;4.40;2.20;;;;;;;;;;4817242;29;20054;-78
2023/05/26 14:56:00;;;;;;;4.18;2.20;;;;;;;;;;4831178;29;20058;-75
2023/05/26 14:58:33;;;;;;;5.15;2.42;;;;;;;;;;4817709;29;20422;-77
2023/05/26 15:01:04;;;;;;;6.65;1.70;;;;;;;;;;4816006;29;20422;-83
2023/05/26 15:03:34;;;;;;;9.35;2.63;;;;;;;;;;4817229;29;20058;-75
2023/05/26 15:06:24;;;;;;;7.53;2.25;;;;;;;;;;4816114;29;20514;-76
2023/05/26 15:08:56;;;;;;;9.93;2.30;;;;;;;;;;4817288;29;20063;-74
2023/05/26 15:11:30;;;;;;;11.23;2.40;;;;;;;;;;4817376;29;20058;-75
2023/05/26 15:14:01;;;;;;;1.95;1.63;;;;;;;;;;4830675;29;20054;-75
2023/05/26 15:16:33;;;;;;;8.20;2.03;;;;;;;;;;4818071;29;20059;-72
2023/05/26 15:19:04;;;;;;;6.10;4.78;;;;;;;;;;4817122;29;20054;-75
2023/05/26 15:21:48;;;;;;;10.20;3.13;;;;;;;;;;4816148;29;20050;-76
2023/05/26 15:24:21;;;;;;;5.65;4.32;;;;;;;;;;4817863;29;20077;-76